sensor_id;sensor_type;location;lat;lon;timestamp;P1;durP1;ratioP1;P2;durP2;ratioP2
25535;SDS011;13431;51.352;6.412;2022-10-31T00:01:20;17.75;;;11.38;;
25535;SDS011;13431;51.352;6.412;2022-10-31T00:03:48;20.40;;;12.15;;
25535;SDS011;13431;51.352;6.412;2022-10-31T00:06:15;14.35;;;11.63;;
25535;SDS011;13431;51.352;6.412;2022-10-31T00:08:45;13.75;;;12.27;;
25535;SDS011;13431;51.352;6.412;2022-10-31T00:11:13;14.93;;;11.95;;
25535;SDS011;13431;51.352;6.412;2022-10-31T00:13:40;15.52;;;11.10;;
25535;SDS011;13431;51.352;6.412;2022-10-31T00:16:18;16.88;;;12.43;;
25535;SDS011;13431;51.352;6.412;2022-10-31T00:18:51;14.55;;;11.13;;
25535;SDS011;13431;51.352;6.412;2022-10-31T00:21:20;19.40;;;12.73;;
25535;SDS011;13431;51.352;6.412;2022-10-31T00:23:48;17.45;;;12.15;;
25535;SDS011;13431;51.352;6.412;2022-10-31T00:26:16;14.15;;;12.40;;
25535;SDS011;13431;51.352;6.412;2022-10-31T00:28:44;22.48;;;13.93;;
25535;SDS011;13431;51.352;6.412;2022-10-31T00:31:12;21.33;;;14.27;;
25535;SDS011;13431;51.352;6.412;2022-10-31T00:33:40;16.40;;;13.52;;
25535;SDS011;13431;51.352;6.412;2022-10-31T00:36:10;18.40;;;14.02;;
25535;SDS011;13431;51.352;6.412;2022-10-31T00:38:40;17.45;;;12.73;;
25535;SDS011;13431;51.352;6.412;2022-10-31T00:41:11;15.95;;;12.93;;
25535;SDS011;13431;51.352;6.412;2022-10-31T00:43:40;20.20;;;13.10;;
25535;SDS011;13431;51.352;6.412;2022-10-31T00:46:09;17.52;;;12.27;;
25535;SDS011;13431;51.352;6.412;2022-10-31T00:48:37;17.27;;;12.18;;
25535;SDS011;13431;51.352;6.412;2022-10-31T00:51:04;16.02;;;12.43;;
25535;SDS011;13431;51.352;6.412;2022-10-31T00:53:32;14.32;;;12.15;;
25535;SDS011;13431;51.352;6.412;2022-10-31T00:56:00;18.27;;;11.93;;
25535;SDS011;13431;51.352;6.412;2022-10-31T00:58:27;18.10;;;12.70;;
25535;SDS011;13431;51.352;6.412;2022-10-31T01:00:54;15.77;;;13.18;;
25535;SDS011;13431;51.352;6.412;2022-10-31T01:03:23;20.48;;;13.43;;
25535;SDS011;13431;51.352;6.412;2022-10-31T01:06:10;19.90;;;13.82;;
25535;SDS011;13431;51.352;6.412;2022-10-31T01:08:39;17.27;;;13.43;;
25535;SDS011;13431;51.352;6.412;2022-10-31T01:11:08;19.08;;;14.15;;
25535;SDS011;13431;51.352;6.412;2022-10-31T01:13:44;17.15;;;13.80;;
25535;SDS011;13431;51.352;6.412;2022-10-31T01:16:14;17.42;;;15.07;;
25535;SDS011;13431;51.352;6.412;2022-10-31T01:18:43;17.55;;;13.50;;
25535;SDS011;13431;51.352;6.412;2022-10-31T01:21:12;17.73;;;13.68;;
25535;SDS011;13431;51.352;6.412;2022-10-31T01:23:44;15.75;;;13.63;;
25535;SDS011;13431;51.352;6.412;2022-10-31T01:26:17;18.02;;;14.23;;
25535;SDS011;13431;51.352;6.412;2022-10-31T01:28:56;16.85;;;13.88;;
25535;SDS011;13431;51.352;6.412;2022-10-31T01:31:29;18.20;;;15.07;;
25535;SDS011;13431;51.352;6.412;2022-10-31T01:33:58;22.90;;;14.30;;
25535;SDS011;13431;51.352;6.412;2022-10-31T01:36:30;22.05;;;15.50;;
25535;SDS011;13431;51.352;6.412;2022-10-31T01:39:00;17.13;;;14.50;;
25535;SDS011;13431;51.352;6.412;2022-10-31T01:41:34;16.90;;;13.32;;
25535;SDS011;13431;51.352;6.412;2022-10-31T01:44:47;17.65;;;14.23;;
25535;SDS011;13431;51.352;6.412;2022-10-31T01:47:13;21.77;;;15.23;;
25535;SDS011;13431;51.352;6.412;2022-10-31T01:49:43;20.77;;;14.85;;
25535;SDS011;13431;51.352;6.412;2022-10-31T01:52:20;16.48;;;13.70;;
25535;SDS011;13431;51.352;6.412;2022-10-31T01:54:48;19.73;;;14.82;;
25535;SDS011;13431;51.352;6.412;2022-10-31T01:57:21;16.50;;;14.65;;
25535;SDS011;13431;51.352;6.412;2022-10-31T01:59:51;20.20;;;14.85;;
25535;SDS011;13431;51.352;6.412;2022-10-31T02:02:21;19.83;;;14.80;;
25535;SDS011;13431;51.352;6.412;2022-10-31T02:04:51;17.23;;;13.68;;
25535;SDS011;13431;51.352;6.412;2022-10-31T02:07:36;18.60;;;14.43;;
25535;SDS011;13431;51.352;6.412;2022-10-31T02:10:29;22.35;;;15.35;;
25535;SDS011;13431;51.352;6.412;2022-10-31T02:13:00;20.63;;;15.57;;
25535;SDS011;13431;51.352;6.412;2022-10-31T02:15:32;20.20;;;14.88;;
25535;SDS011;13431;51.352;6.412;2022-10-31T02:18:01;24.13;;;16.60;;
25535;SDS011;13431;51.352;6.412;2022-10-31T02:20:32;21.20;;;16.13;;
25535;SDS011;13431;51.352;6.412;2022-10-31T02:23:25;20.13;;;15.52;;
25535;SDS011;13431;51.352;6.412;2022-10-31T02:26:35;21.05;;;15.85;;
25535;SDS011;13431;51.352;6.412;2022-10-31T02:43:05;21.73;;;16.63;;
25535;SDS011;13431;51.352;6.412;2022-10-31T02:49:06;22.85;;;17.70;;
25535;SDS011;13431;51.352;6.412;2022-10-31T02:51:40;20.23;;;16.50;;
25535;SDS011;13431;51.352;6.412;2022-10-31T02:54:17;20.65;;;16.98;;
25535;SDS011;13431;51.352;6.412;2022-10-31T02:56:57;24.67;;;15.65;;
25535;SDS011;13431;51.352;6.412;2022-10-31T02:59:30;20.95;;;15.90;;
25535;SDS011;13431;51.352;6.412;2022-10-31T03:02:06;22.23;;;16.55;;
25535;SDS011;13431;51.352;6.412;2022-10-31T03:07:41;24.77;;;16.60;;
25535;SDS011;13431;51.352;6.412;2022-10-31T03:13:21;27.13;;;17.15;;
25535;SDS011;13431;51.352;6.412;2022-10-31T03:15:56;19.77;;;16.05;;
25535;SDS011;13431;51.352;6.412;2022-10-31T03:18:37;21.70;;;17.42;;
25535;SDS011;13431;51.352;6.412;2022-10-31T03:23:40;19.80;;;15.55;;
25535;SDS011;13431;51.352;6.412;2022-10-31T03:26:18;24.38;;;18.15;;
25535;SDS011;13431;51.352;6.412;2022-10-31T03:28:50;23.33;;;20.77;;
25535;SDS011;13431;51.352;6.412;2022-10-31T03:31:26;22.77;;;17.63;;
25535;SDS011;13431;51.352;6.412;2022-10-31T03:33:58;22.63;;;17.27;;
25535;SDS011;13431;51.352;6.412;2022-10-31T03:36:32;20.98;;;16.05;;
25535;SDS011;13431;51.352;6.412;2022-10-31T03:39:04;22.95;;;16.63;;
25535;SDS011;13431;51.352;6.412;2022-10-31T03:41:38;21.08;;;15.88;;
25535;SDS011;13431;51.352;6.412;2022-10-31T03:44:13;19.02;;;16.35;;
25535;SDS011;13431;51.352;6.412;2022-10-31T03:46:48;18.63;;;15.00;;
25535;SDS011;13431;51.352;6.412;2022-10-31T03:49:16;22.55;;;17.92;;
25535;SDS011;13431;51.352;6.412;2022-10-31T03:51:54;18.45;;;15.63;;
25535;SDS011;13431;51.352;6.412;2022-10-31T03:54:43;26.00;;;17.08;;
25535;SDS011;13431;51.352;6.412;2022-10-31T04:00:11;21.35;;;17.35;;
25535;SDS011;13431;51.352;6.412;2022-10-31T04:02:57;23.73;;;18.13;;
25535;SDS011;13431;51.352;6.412;2022-10-31T04:05:33;23.38;;;17.95;;
25535;SDS011;13431;51.352;6.412;2022-10-31T04:08:03;20.15;;;17.42;;
25535;SDS011;13431;51.352;6.412;2022-10-31T04:10:34;23.25;;;17.23;;
25535;SDS011;13431;51.352;6.412;2022-10-31T04:13:06;22.77;;;17.17;;
25535;SDS011;13431;51.352;6.412;2022-10-31T04:15:45;26.50;;;18.60;;
25535;SDS011;13431;51.352;6.412;2022-10-31T04:18:16;19.88;;;17.30;;
25535;SDS011;13431;51.352;6.412;2022-10-31T04:20:43;26.17;;;18.05;;
25535;SDS011;13431;51.352;6.412;2022-10-31T04:23:14;27.33;;;18.80;;
25535;SDS011;13431;51.352;6.412;2022-10-31T04:25:49;24.70;;;18.23;;
25535;SDS011;13431;51.352;6.412;2022-10-31T04:28:17;24.70;;;18.95;;
25535;SDS011;13431;51.352;6.412;2022-10-31T04:30:50;23.50;;;17.95;;
25535;SDS011;13431;51.352;6.412;2022-10-31T04:33:18;23.25;;;18.88;;
25535;SDS011;13431;51.352;6.412;2022-10-31T04:35:46;21.40;;;18.38;;
25535;SDS011;13431;51.352;6.412;2022-10-31T04:38:14;23.30;;;19.83;;
25535;SDS011;13431;51.352;6.412;2022-10-31T04:40:42;21.92;;;17.85;;
25535;SDS011;13431;51.352;6.412;2022-10-31T04:43:39;21.90;;;18.10;;
25535;SDS011;13431;51.352;6.412;2022-10-31T04:46:07;27.42;;;19.35;;
25535;SDS011;13431;51.352;6.412;2022-10-31T04:48:34;28.05;;;18.23;;
25535;SDS011;13431;51.352;6.412;2022-10-31T04:51:04;24.50;;;17.55;;
25535;SDS011;13431;51.352;6.412;2022-10-31T04:53:32;25.45;;;17.38;;
25535;SDS011;13431;51.352;6.412;2022-10-31T04:56:18;26.60;;;18.00;;
25535;SDS011;13431;51.352;6.412;2022-10-31T04:58:49;25.75;;;17.63;;
25535;SDS011;13431;51.352;6.412;2022-10-31T05:01:17;25.13;;;17.52;;
25535;SDS011;13431;51.352;6.412;2022-10-31T05:03:45;26.58;;;18.65;;
25535;SDS011;13431;51.352;6.412;2022-10-31T05:06:12;21.42;;;16.65;;
25535;SDS011;13431;51.352;6.412;2022-10-31T05:08:41;24.45;;;17.27;;
25535;SDS011;13431;51.352;6.412;2022-10-31T05:11:10;22.00;;;16.35;;
25535;SDS011;13431;51.352;6.412;2022-10-31T05:13:38;24.45;;;17.52;;
25535;SDS011;13431;51.352;6.412;2022-10-31T05:16:08;25.02;;;18.30;;
25535;SDS011;13431;51.352;6.412;2022-10-31T05:18:54;25.00;;;17.67;;
25535;SDS011;13431;51.352;6.412;2022-10-31T05:21:54;22.98;;;16.58;;
25535;SDS011;13431;51.352;6.412;2022-10-31T05:24:22;24.13;;;17.83;;
25535;SDS011;13431;51.352;6.412;2022-10-31T05:26:50;27.23;;;16.75;;
25535;SDS011;13431;51.352;6.412;2022-10-31T05:29:17;20.88;;;16.63;;
25535;SDS011;13431;51.352;6.412;2022-10-31T05:31:44;21.73;;;16.67;;
25535;SDS011;13431;51.352;6.412;2022-10-31T05:34:31;22.63;;;17.10;;
25535;SDS011;13431;51.352;6.412;2022-10-31T05:37:19;23.63;;;16.70;;
25535;SDS011;13431;51.352;6.412;2022-10-31T05:39:47;22.73;;;18.33;;
25535;SDS011;13431;51.352;6.412;2022-10-31T05:42:16;22.20;;;16.48;;
25535;SDS011;13431;51.352;6.412;2022-10-31T05:44:43;22.98;;;16.83;;
25535;SDS011;13431;51.352;6.412;2022-10-31T05:47:33;25.73;;;18.35;;
25535;SDS011;13431;51.352;6.412;2022-10-31T05:50:19;19.83;;;15.60;;
25535;SDS011;13431;51.352;6.412;2022-10-31T05:52:55;21.52;;;16.27;;
25535;SDS011;13431;51.352;6.412;2022-10-31T05:55:30;22.20;;;16.38;;
25535;SDS011;13431;51.352;6.412;2022-10-31T05:58:06;22.52;;;16.80;;
25535;SDS011;13431;51.352;6.412;2022-10-31T06:00:35;24.60;;;16.33;;
25535;SDS011;13431;51.352;6.412;2022-10-31T06:03:07;23.85;;;16.17;;
25535;SDS011;13431;51.352;6.412;2022-10-31T06:05:44;22.23;;;16.77;;
25535;SDS011;13431;51.352;6.412;2022-10-31T06:08:20;24.63;;;17.50;;
25535;SDS011;13431;51.352;6.412;2022-10-31T06:10:48;24.05;;;17.30;;
25535;SDS011;13431;51.352;6.412;2022-10-31T06:13:22;25.30;;;17.42;;
25535;SDS011;13431;51.352;6.412;2022-10-31T06:15:58;21.60;;;16.58;;
25535;SDS011;13431;51.352;6.412;2022-10-31T06:18:33;24.95;;;17.45;;
25535;SDS011;13431;51.352;6.412;2022-10-31T06:21:00;26.27;;;15.35;;
25535;SDS011;13431;51.352;6.412;2022-10-31T06:23:28;23.00;;;16.73;;
25535;SDS011;13431;51.352;6.412;2022-10-31T06:26:15;22.35;;;16.48;;
25535;SDS011;13431;51.352;6.412;2022-10-31T06:28:42;24.85;;;17.15;;
25535;SDS011;13431;51.352;6.412;2022-10-31T06:31:22;25.05;;;17.52;;
25535;SDS011;13431;51.352;6.412;2022-10-31T06:33:49;22.17;;;16.10;;
25535;SDS011;13431;51.352;6.412;2022-10-31T06:36:17;22.25;;;16.48;;
25535;SDS011;13431;51.352;6.412;2022-10-31T06:38:44;25.33;;;16.45;;
25535;SDS011;13431;51.352;6.412;2022-10-31T06:41:12;22.15;;;17.05;;
25535;SDS011;13431;51.352;6.412;2022-10-31T06:43:46;20.58;;;16.00;;
25535;SDS011;13431;51.352;6.412;2022-10-31T06:46:32;22.67;;;15.65;;
25535;SDS011;13431;51.352;6.412;2022-10-31T06:49:18;23.05;;;15.60;;
25535;SDS011;13431;51.352;6.412;2022-10-31T06:51:53;21.10;;;16.45;;
25535;SDS011;13431;51.352;6.412;2022-10-31T06:54:21;20.67;;;16.33;;
25535;SDS011;13431;51.352;6.412;2022-10-31T06:56:48;23.75;;;18.05;;
25535;SDS011;13431;51.352;6.412;2022-10-31T06:59:16;23.88;;;18.30;;
25535;SDS011;13431;51.352;6.412;2022-10-31T07:02:09;26.42;;;16.48;;
25535;SDS011;13431;51.352;6.412;2022-10-31T07:04:39;23.85;;;15.90;;
25535;SDS011;13431;51.352;6.412;2022-10-31T07:07:07;29.55;;;17.15;;
25535;SDS011;13431;51.352;6.412;2022-10-31T07:09:37;23.48;;;15.73;;
25535;SDS011;13431;51.352;6.412;2022-10-31T07:12:05;21.38;;;16.08;;
25535;SDS011;13431;51.352;6.412;2022-10-31T07:14:36;25.10;;;17.40;;
25535;SDS011;13431;51.352;6.412;2022-10-31T07:17:04;26.13;;;18.33;;
25535;SDS011;13431;51.352;6.412;2022-10-31T07:19:38;25.05;;;17.75;;
25535;SDS011;13431;51.352;6.412;2022-10-31T07:22:06;21.40;;;17.38;;
25535;SDS011;13431;51.352;6.412;2022-10-31T07:24:34;22.40;;;16.20;;
25535;SDS011;13431;51.352;6.412;2022-10-31T07:27:20;23.50;;;16.00;;
25535;SDS011;13431;51.352;6.412;2022-10-31T07:29:48;22.48;;;15.90;;
25535;SDS011;13431;51.352;6.412;2022-10-31T07:32:16;21.63;;;14.52;;
25535;SDS011;13431;51.352;6.412;2022-10-31T07:34:51;23.00;;;15.25;;
25535;SDS011;13431;51.352;6.412;2022-10-31T07:37:21;22.63;;;14.70;;
25535;SDS011;13431;51.352;6.412;2022-10-31T07:39:48;21.63;;;14.50;;
25535;SDS011;13431;51.352;6.412;2022-10-31T07:42:16;21.00;;;13.40;;
25535;SDS011;13431;51.352;6.412;2022-10-31T07:44:44;16.40;;;13.88;;
25535;SDS011;13431;51.352;6.412;2022-10-31T07:47:37;17.17;;;13.48;;
25535;SDS011;13431;51.352;6.412;2022-10-31T07:50:28;23.33;;;12.25;;
25535;SDS011;13431;51.352;6.412;2022-10-31T07:53:15;17.30;;;12.18;;
25535;SDS011;13431;51.352;6.412;2022-10-31T07:55:50;15.57;;;12.20;;
25535;SDS011;13431;51.352;6.412;2022-10-31T07:58:18;17.27;;;12.32;;
25535;SDS011;13431;51.352;6.412;2022-10-31T08:00:46;15.82;;;11.90;;
25535;SDS011;13431;51.352;6.412;2022-10-31T08:03:25;19.42;;;11.25;;
25535;SDS011;13431;51.352;6.412;2022-10-31T08:06:15;15.25;;;11.00;;
25535;SDS011;13431;51.352;6.412;2022-10-31T08:09:01;14.90;;;9.98;;
25535;SDS011;13431;51.352;6.412;2022-10-31T08:11:30;17.98;;;11.57;;
25535;SDS011;13431;51.352;6.412;2022-10-31T08:13:59;12.85;;;10.25;;
25535;SDS011;13431;51.352;6.412;2022-10-31T08:16:26;16.30;;;10.85;;
25535;SDS011;13431;51.352;6.412;2022-10-31T08:18:58;16.23;;;10.95;;
25535;SDS011;13431;51.352;6.412;2022-10-31T08:21:28;15.63;;;10.60;;
25535;SDS011;13431;51.352;6.412;2022-10-31T08:23:56;15.18;;;9.88;;
25535;SDS011;13431;51.352;6.412;2022-10-31T08:26:24;14.48;;;10.40;;
25535;SDS011;13431;51.352;6.412;2022-10-31T08:28:53;12.70;;;10.73;;
25535;SDS011;13431;51.352;6.412;2022-10-31T08:31:23;12.38;;;10.65;;
25535;SDS011;13431;51.352;6.412;2022-10-31T08:34:17;12.43;;;9.15;;
25535;SDS011;13431;51.352;6.412;2022-10-31T08:37:03;10.27;;;9.05;;
25535;SDS011;13431;51.352;6.412;2022-10-31T08:39:40;19.38;;;9.63;;
25535;SDS011;13431;51.352;6.412;2022-10-31T08:42:07;13.07;;;9.13;;
25535;SDS011;13431;51.352;6.412;2022-10-31T08:44:35;16.73;;;10.13;;
25535;SDS011;13431;51.352;6.412;2022-10-31T08:47:03;14.25;;;8.90;;
25535;SDS011;13431;51.352;6.412;2022-10-31T08:49:33;18.20;;;9.60;;
25535;SDS011;13431;51.352;6.412;2022-10-31T08:52:02;12.18;;;8.90;;
25535;SDS011;13431;51.352;6.412;2022-10-31T08:54:33;14.57;;;8.02;;
25535;SDS011;13431;51.352;6.412;2022-10-31T08:57:23;10.45;;;8.23;;
25535;SDS011;13431;51.352;6.412;2022-10-31T08:59:52;12.40;;;8.93;;
25535;SDS011;13431;51.352;6.412;2022-10-31T09:02:19;19.15;;;9.60;;
25535;SDS011;13431;51.352;6.412;2022-10-31T09:04:49;16.80;;;9.48;;
25535;SDS011;13431;51.352;6.412;2022-10-31T09:07:18;17.65;;;10.32;;
25535;SDS011;13431;51.352;6.412;2022-10-31T09:09:47;12.57;;;9.13;;
25535;SDS011;13431;51.352;6.412;2022-10-31T09:12:16;14.20;;;8.65;;
25535;SDS011;13431;51.352;6.412;2022-10-31T09:15:02;30.67;;;11.23;;
25535;SDS011;13431;51.352;6.412;2022-10-31T09:18:08;12.13;;;8.85;;
25535;SDS011;13431;51.352;6.412;2022-10-31T09:20:54;11.30;;;9.60;;
25535;SDS011;13431;51.352;6.412;2022-10-31T09:23:23;18.55;;;11.45;;
25535;SDS011;13431;51.352;6.412;2022-10-31T09:25:52;15.35;;;9.55;;
25535;SDS011;13431;51.352;6.412;2022-10-31T09:28:38;62.67;;;25.08;;
25535;SDS011;13431;51.352;6.412;2022-10-31T09:31:13;21.60;;;11.85;;
25535;SDS011;13431;51.352;6.412;2022-10-31T09:33:59;16.33;;;9.98;;
25535;SDS011;13431;51.352;6.412;2022-10-31T09:36:36;13.93;;;10.23;;
25535;SDS011;13431;51.352;6.412;2022-10-31T09:39:11;14.05;;;11.18;;
25535;SDS011;13431;51.352;6.412;2022-10-31T09:50:34;28.05;;;12.88;;
25535;SDS011;13431;51.352;6.412;2022-10-31T09:58:44;16.23;;;10.18;;
25535;SDS011;13431;51.352;6.412;2022-10-31T10:01:29;13.63;;;9.82;;
25535;SDS011;13431;51.352;6.412;2022-10-31T10:07:33;14.18;;;9.18;;
25535;SDS011;13431;51.352;6.412;2022-10-31T10:31:01;16.30;;;10.63;;
25535;SDS011;13431;51.352;6.412;2022-10-31T10:39:45;13.43;;;10.35;;
25535;SDS011;13431;51.352;6.412;2022-10-31T10:42:30;16.00;;;9.13;;
25535;SDS011;13431;51.352;6.412;2022-10-31T10:45:30;19.15;;;11.18;;
25535;SDS011;13431;51.352;6.412;2022-10-31T10:48:33;14.30;;;9.70;;
25535;SDS011;13431;51.352;6.412;2022-10-31T10:51:37;13.35;;;8.80;;
25535;SDS011;13431;51.352;6.412;2022-10-31T10:57:34;32.38;;;11.18;;
25535;SDS011;13431;51.352;6.412;2022-10-31T11:00:26;14.75;;;9.45;;
25535;SDS011;13431;51.352;6.412;2022-10-31T11:03:10;80.25;;;21.02;;
25535;SDS011;13431;51.352;6.412;2022-10-31T11:05:56;16.65;;;10.50;;
25535;SDS011;13431;51.352;6.412;2022-10-31T11:08:39;15.75;;;10.50;;
25535;SDS011;13431;51.352;6.412;2022-10-31T11:14:25;17.40;;;9.30;;
25535;SDS011;13431;51.352;6.412;2022-10-31T11:17:09;17.50;;;10.25;;
25535;SDS011;13431;51.352;6.412;2022-10-31T11:20:49;20.48;;;9.70;;
25535;SDS011;13431;51.352;6.412;2022-10-31T11:23:17;13.95;;;9.35;;
25535;SDS011;13431;51.352;6.412;2022-10-31T11:26:00;12.82;;;9.23;;
25535;SDS011;13431;51.352;6.412;2022-10-31T11:28:57;392.33;;;69.20;;
25535;SDS011;13431;51.352;6.412;2022-10-31T11:31:39;252.75;;;41.63;;
25535;SDS011;13431;51.352;6.412;2022-10-31T11:37:21;14.40;;;8.73;;
25535;SDS011;13431;51.352;6.412;2022-10-31T11:40:14;13.05;;;8.52;;
25535;SDS011;13431;51.352;6.412;2022-10-31T11:43:01;12.35;;;8.75;;
25535;SDS011;13431;51.352;6.412;2022-10-31T11:45:43;14.00;;;8.80;;
25535;SDS011;13431;51.352;6.412;2022-10-31T11:48:25;14.52;;;8.73;;
25535;SDS011;13431;51.352;6.412;2022-10-31T11:51:07;13.38;;;8.80;;
25535;SDS011;13431;51.352;6.412;2022-10-31T11:53:52;11.57;;;8.32;;
25535;SDS011;13431;51.352;6.412;2022-10-31T11:56:40;11.93;;;8.52;;
25535;SDS011;13431;51.352;6.412;2022-10-31T11:59:27;11.18;;;7.80;;
25535;SDS011;13431;51.352;6.412;2022-10-31T12:02:17;13.38;;;8.32;;
25535;SDS011;13431;51.352;6.412;2022-10-31T12:08:01;13.32;;;7.93;;
25535;SDS011;13431;51.352;6.412;2022-10-31T12:10:51;9.40;;;7.05;;
25535;SDS011;13431;51.352;6.412;2022-10-31T12:13:40;10.48;;;7.70;;
25535;SDS011;13431;51.352;6.412;2022-10-31T12:19:04;11.45;;;7.53;;
25535;SDS011;13431;51.352;6.412;2022-10-31T12:27:14;11.57;;;7.25;;
25535;SDS011;13431;51.352;6.412;2022-10-31T12:35:51;16.27;;;8.27;;
25535;SDS011;13431;51.352;6.412;2022-10-31T12:38:53;17.83;;;8.32;;
25535;SDS011;13431;51.352;6.412;2022-10-31T12:47:02;11.52;;;7.50;;
25535;SDS011;13431;51.352;6.412;2022-10-31T12:50:08;14.27;;;7.63;;
25535;SDS011;13431;51.352;6.412;2022-10-31T12:53:11;10.27;;;6.93;;
25535;SDS011;13431;51.352;6.412;2022-10-31T12:58:33;11.48;;;6.32;;
25535;SDS011;13431;51.352;6.412;2022-10-31T13:03:57;9.23;;;6.03;;
25535;SDS011;13431;51.352;6.412;2022-10-31T13:06:28;11.55;;;6.72;;
25535;SDS011;13431;51.352;6.412;2022-10-31T13:09:12;17.45;;;7.47;;
25535;SDS011;13431;51.352;6.412;2022-10-31T13:11:48;14.55;;;7.38;;
25535;SDS011;13431;51.352;6.412;2022-10-31T13:17:00;12.55;;;6.75;;
25535;SDS011;13431;51.352;6.412;2022-10-31T13:19:30;12.85;;;6.85;;
25535;SDS011;13431;51.352;6.412;2022-10-31T13:24:55;11.95;;;6.65;;
25535;SDS011;13431;51.352;6.412;2022-10-31T13:27:28;13.27;;;6.43;;
25535;SDS011;13431;51.352;6.412;2022-10-31T13:30:04;15.27;;;6.25;;
25535;SDS011;13431;51.352;6.412;2022-10-31T13:35:24;10.25;;;5.90;;
25535;SDS011;13431;51.352;6.412;2022-10-31T13:38:02;11.00;;;5.63;;
25535;SDS011;13431;51.352;6.412;2022-10-31T13:46:25;9.40;;;5.53;;
25535;SDS011;13431;51.352;6.412;2022-10-31T13:49:02;13.05;;;6.35;;
25535;SDS011;13431;51.352;6.412;2022-10-31T13:51:31;16.92;;;4.60;;
25535;SDS011;13431;51.352;6.412;2022-10-31T13:54:01;10.23;;;5.53;;
25535;SDS011;13431;51.352;6.412;2022-10-31T13:56:48;10.98;;;5.35;;
25535;SDS011;13431;51.352;6.412;2022-10-31T13:59:27;11.00;;;5.03;;
25535;SDS011;13431;51.352;6.412;2022-10-31T14:01:58;11.20;;;4.60;;
25535;SDS011;13431;51.352;6.412;2022-10-31T14:04:38;8.38;;;4.53;;
25535;SDS011;13431;51.352;6.412;2022-10-31T14:07:19;10.23;;;4.90;;
25535;SDS011;13431;51.352;6.412;2022-10-31T14:12:28;12.10;;;4.65;;
25535;SDS011;13431;51.352;6.412;2022-10-31T14:15:28;10.88;;;4.60;;
25535;SDS011;13431;51.352;6.412;2022-10-31T14:18:00;8.18;;;5.05;;
25535;SDS011;13431;51.352;6.412;2022-10-31T14:20:40;9.10;;;4.80;;
25535;SDS011;13431;51.352;6.412;2022-10-31T14:26:06;9.40;;;4.75;;
25535;SDS011;13431;51.352;6.412;2022-10-31T14:28:44;12.77;;;4.93;;
25535;SDS011;13431;51.352;6.412;2022-10-31T14:33:59;10.00;;;5.15;;
25535;SDS011;13431;51.352;6.412;2022-10-31T14:52:49;8.27;;;4.70;;
25535;SDS011;13431;51.352;6.412;2022-10-31T14:55:20;7.13;;;4.40;;
25535;SDS011;13431;51.352;6.412;2022-10-31T14:57:51;11.13;;;4.38;;
25535;SDS011;13431;51.352;6.412;2022-10-31T15:00:22;10.50;;;4.72;;
25535;SDS011;13431;51.352;6.412;2022-10-31T15:05:50;12.15;;;4.78;;
25535;SDS011;13431;51.352;6.412;2022-10-31T15:11:09;8.25;;;4.18;;
25535;SDS011;13431;51.352;6.412;2022-10-31T15:13:41;11.52;;;4.82;;
25535;SDS011;13431;51.352;6.412;2022-10-31T15:16:13;7.63;;;4.28;;
25535;SDS011;13431;51.352;6.412;2022-10-31T15:18:51;7.53;;;3.83;;
25535;SDS011;13431;51.352;6.412;2022-10-31T15:21:24;6.28;;;3.97;;
25535;SDS011;13431;51.352;6.412;2022-10-31T15:23:55;8.18;;;4.00;;
25535;SDS011;13431;51.352;6.412;2022-10-31T15:26:32;7.03;;;3.83;;
25535;SDS011;13431;51.352;6.412;2022-10-31T15:29:05;8.20;;;4.18;;
25535;SDS011;13431;51.352;6.412;2022-10-31T15:31:48;10.77;;;4.93;;
25535;SDS011;13431;51.352;6.412;2022-10-31T15:34:26;5.32;;;3.95;;
25535;SDS011;13431;51.352;6.412;2022-10-31T15:37:02;7.82;;;3.95;;
25535;SDS011;13431;51.352;6.412;2022-10-31T15:39:30;9.38;;;4.40;;
25535;SDS011;13431;51.352;6.412;2022-10-31T15:41:58;9.25;;;5.15;;
25535;SDS011;13431;51.352;6.412;2022-10-31T15:44:27;7.28;;;4.13;;
25535;SDS011;13431;51.352;6.412;2022-10-31T15:47:04;5.88;;;4.13;;
25535;SDS011;13431;51.352;6.412;2022-10-31T15:49:53;9.50;;;4.00;;
25535;SDS011;13431;51.352;6.412;2022-10-31T15:52:29;11.68;;;4.28;;
25535;SDS011;13431;51.352;6.412;2022-10-31T15:55:05;8.07;;;4.53;;
25535;SDS011;13431;51.352;6.412;2022-10-31T16:03:10;7.22;;;4.57;;
25535;SDS011;13431;51.352;6.412;2022-10-31T16:05:53;8.57;;;4.53;;
25535;SDS011;13431;51.352;6.412;2022-10-31T16:10:50;9.55;;;4.07;;
25535;SDS011;13431;51.352;6.412;2022-10-31T16:13:25;6.10;;;4.13;;
25535;SDS011;13431;51.352;6.412;2022-10-31T16:15:56;15.18;;;5.05;;
25535;SDS011;13431;51.352;6.412;2022-10-31T16:18:48;6.22;;;3.58;;
25535;SDS011;13431;51.352;6.412;2022-10-31T16:21:51;10.02;;;4.60;;
25535;SDS011;13431;51.352;6.412;2022-10-31T16:24:25;9.18;;;4.43;;
25535;SDS011;13431;51.352;6.412;2022-10-31T16:26:59;6.10;;;4.50;;
25535;SDS011;13431;51.352;6.412;2022-10-31T16:32:29;6.72;;;4.00;;
25535;SDS011;13431;51.352;6.412;2022-10-31T16:37:38;6.78;;;3.70;;
25535;SDS011;13431;51.352;6.412;2022-10-31T16:40:12;7.45;;;4.18;;
25535;SDS011;13431;51.352;6.412;2022-10-31T16:42:40;6.78;;;4.15;;
25535;SDS011;13431;51.352;6.412;2022-10-31T16:45:13;9.70;;;4.68;;
25535;SDS011;13431;51.352;6.412;2022-10-31T16:47:44;21.55;;;5.70;;
25535;SDS011;13431;51.352;6.412;2022-10-31T16:50:16;5.68;;;4.22;;
25535;SDS011;13431;51.352;6.412;2022-10-31T16:52:49;9.60;;;5.80;;
25535;SDS011;13431;51.352;6.412;2022-10-31T16:55:41;10.40;;;5.53;;
25535;SDS011;13431;51.352;6.412;2022-10-31T16:58:15;6.68;;;5.10;;
25535;SDS011;13431;51.352;6.412;2022-10-31T17:00:44;6.78;;;4.43;;
25535;SDS011;13431;51.352;6.412;2022-10-31T17:03:12;7.18;;;4.15;;
25535;SDS011;13431;51.352;6.412;2022-10-31T17:05:39;9.70;;;4.60;;
25535;SDS011;13431;51.352;6.412;2022-10-31T17:08:07;11.13;;;5.75;;
25535;SDS011;13431;51.352;6.412;2022-10-31T17:10:34;14.43;;;5.63;;
25535;SDS011;13431;51.352;6.412;2022-10-31T17:13:03;14.00;;;6.50;;
25535;SDS011;13431;51.352;6.412;2022-10-31T17:15:37;10.38;;;5.28;;
25535;SDS011;13431;51.352;6.412;2022-10-31T17:18:13;5.47;;;4.43;;
25535;SDS011;13431;51.352;6.412;2022-10-31T17:20:42;7.90;;;4.28;;
25535;SDS011;13431;51.352;6.412;2022-10-31T17:23:11;18.10;;;5.45;;
25535;SDS011;13431;51.352;6.412;2022-10-31T17:25:39;8.98;;;4.05;;
25535;SDS011;13431;51.352;6.412;2022-10-31T17:28:10;9.35;;;4.97;;
25535;SDS011;13431;51.352;6.412;2022-10-31T17:30:39;8.48;;;4.68;;
25535;SDS011;13431;51.352;6.412;2022-10-31T17:33:11;9.68;;;4.45;;
25535;SDS011;13431;51.352;6.412;2022-10-31T17:35:42;9.25;;;4.38;;
25535;SDS011;13431;51.352;6.412;2022-10-31T17:38:12;8.68;;;3.83;;
25535;SDS011;13431;51.352;6.412;2022-10-31T17:40:40;7.32;;;5.07;;
25535;SDS011;13431;51.352;6.412;2022-10-31T17:43:10;9.38;;;4.35;;
25535;SDS011;13431;51.352;6.412;2022-10-31T17:45:39;7.07;;;4.00;;
25535;SDS011;13431;51.352;6.412;2022-10-31T17:48:10;7.70;;;4.30;;
25535;SDS011;13431;51.352;6.412;2022-10-31T17:50:38;7.57;;;4.70;;
25535;SDS011;13431;51.352;6.412;2022-10-31T17:53:05;9.32;;;4.35;;
25535;SDS011;13431;51.352;6.412;2022-10-31T17:55:33;6.97;;;4.90;;
25535;SDS011;13431;51.352;6.412;2022-10-31T17:58:03;12.52;;;4.68;;
25535;SDS011;13431;51.352;6.412;2022-10-31T18:00:31;7.50;;;3.90;;
25535;SDS011;13431;51.352;6.412;2022-10-31T18:03:00;6.53;;;4.38;;
25535;SDS011;13431;51.352;6.412;2022-10-31T18:05:29;7.47;;;3.78;;